Time;durP1;ratioP1;P1;durP2;ratioP2;P2;SDS_P1;SDS_P2;PMS_P1;PMS_P2;Temp;Humidity;BMP_temperature;BMP_pressure;BME280_temperature;BME280_humidity;BME280_pressure;Samples;Min_cycle;Max_cycle;Signal;HPM_P1;HPM_P2
2022/12/18 00:01:58;;;;;;;3.80;2.10;;;;;;;;;;5114748;28;20038;-61
2022/12/18 00:04:26;;;;;;;3.20;2.00;;;;;;;;;;5111457;28;20027;-61
2022/12/18 00:06:53;;;;;;;3.07;2.23;;;;;;;;;;5109427;28;20388;-63
2022/12/18 00:09:20;;;;;;;3.80;2.63;;;;;;;;;;5109163;28;20503;-63
2022/12/18 00:11:47;;;;;;;14.53;3.37;;;;;;;;;;5109154;28;20023;-64
2022/12/18 00:14:14;;;;;;;3.93;2.80;;;;;;;;;;5111551;28;20023;-64
2022/12/18 00:16:43;;;;;;;11.10;3.43;;;;;;;;;;5114522;28;20081;-63
2022/12/18 00:19:10;;;;;;;2.73;2.07;;;;;;;;;;5114533;28;20031;-61
2022/12/18 00:21:37;;;;;;;7.13;3.13;;;;;;;;;;5114052;28;20023;-61
2022/12/18 00:24:04;;;;;;;4.10;2.53;;;;;;;;;;5114125;28;20020;-62
2022/12/18 00:26:31;;;;;;;3.73;2.37;;;;;;;;;;5111528;28;20381;-63
2022/12/18 00:29:02;;;;;;;2.53;1.90;;;;;;;;;;5109265;28;20513;-63
2022/12/18 00:31:29;;;;;;;4.07;2.70;;;;;;;;;;5108596;28;20027;-64
2022/12/18 00:33:56;;;;;;;6.67;2.63;;;;;;;;;;5109187;28;20035;-65
2022/12/18 00:36:24;;;;;;;4.17;2.30;;;;;;;;;;5111289;28;20524;-65
2022/12/18 00:38:51;;;;;;;6.93;2.53;;;;;;;;;;5112468;28;20157;-64
2022/12/18 00:44:12;;;;;;;13.13;3.07;;;;;;;;;;5113809;28;20072;-62
2022/12/18 00:46:39;;;;;;;6.40;2.80;;;;;;;;;;5113233;28;20016;-61
2022/12/18 00:49:05;;;;;;;1.93;1.63;;;;;;;;;;5110529;28;20046;-64
2022/12/18 00:51:32;;;;;;;4.73;2.10;;;;;;;;;;5108820;28;20098;-64
2022/12/18 00:53:58;;;;;;;6.37;3.53;;;;;;;;;;5108204;28;20470;-64
2022/12/18 00:56:25;;;;;;;6.10;2.90;;;;;;;;;;5108170;28;20031;-64
2022/12/18 00:58:52;;;;;;;15.47;4.03;;;;;;;;;;5110888;28;20024;-63
2022/12/18 01:01:18;;;;;;;5.67;4.13;;;;;;;;;;5112690;28;20019;-63
2022/12/18 01:03:46;;;;;;;4.43;2.70;;;;;;;;;;5113301;28;20043;-62
2022/12/18 01:22:42;;;;;;;5.63;2.97;;;;;;;;;;5147329;27;20359;-60
2022/12/18 01:25:09;;;;;;;4.77;2.83;;;;;;;;;;5144089;27;20540;-61
2022/12/18 01:27:39;;;;;;;3.53;2.43;;;;;;;;;;5057983;27;2365007;-63
2022/12/18 01:30:06;;;;;;;4.47;3.33;;;;;;;;;;5113863;28;20086;-61
2022/12/18 01:32:36;;;;;;;8.33;3.07;;;;;;;;;;5123981;28;20331;-61
2022/12/18 01:35:03;;;;;;;6.93;3.93;;;;;;;;;;5129102;28;20377;-61
2022/12/18 01:37:31;;;;;;;3.13;1.93;;;;;;;;;;5130180;28;20020;-61
2022/12/18 01:40:01;;;;;;;6.87;4.13;;;;;;;;;;5109742;28;20024;-61
2022/12/18 01:42:31;;;;;;;7.60;3.70;;;;;;;;;;5109457;28;20031;-61
2022/12/18 01:45:04;;;;;;;5.40;3.70;;;;;;;;;;5119233;28;20104;-61
2022/12/18 01:47:34;;;;;;;5.47;3.00;;;;;;;;;;5122166;28;20020;-61
2022/12/18 01:50:06;;;;;;;6.87;3.83;;;;;;;;;;5104322;28;20032;-60
2022/12/18 01:52:38;;;;;;;19.03;4.80;;;;;;;;;;5104208;28;20035;-61
2022/12/18 01:55:10;;;;;;;4.93;3.30;;;;;;;;;;5111150;28;20016;-61
2022/12/18 01:57:40;;;;;;;5.20;2.47;;;;;;;;;;5109429;28;20090;-61
2022/12/18 02:00:11;;;;;;;7.17;4.00;;;;;;;;;;5109509;28;20474;-61
2022/12/18 02:02:38;;;;;;;6.03;3.67;;;;;;;;;;5108897;28;20509;-61
2022/12/18 02:05:16;;;;;;;5.07;3.07;;;;;;;;;;5116425;28;20035;-61
2022/12/18 02:07:52;;;;;;;2.33;1.83;;;;;;;;;;5122894;28;20114;-61
2022/12/18 02:10:27;;;;;;;4.00;3.13;;;;;;;;;;5105508;28;20549;-61
2022/12/18 02:13:07;;;;;;;16.67;4.10;;;;;;;;;;5122564;28;20027;-61
2022/12/18 02:15:45;;;;;;;25.03;3.53;;;;;;;;;;5121662;28;20114;-61
2022/12/18 02:18:16;;;;;;;5.83;4.00;;;;;;;;;;5126443;28;20476;-60
2022/12/18 02:20:56;;;;;;;12.43;3.90;;;;;;;;;;5129359;28;20046;-62
2022/12/18 02:23:41;;;;;;;6.77;3.07;;;;;;;;;;5114160;28;20077;-62
2022/12/18 02:26:09;;;;;;;4.23;2.07;;;;;;;;;;5110591;28;20490;-61
2022/12/18 02:28:41;;;;;;;2.20;1.63;;;;;;;;;;5095115;28;20036;-61
2022/12/18 02:31:15;;;;;;;8.13;3.20;;;;;;;;;;5092181;28;20036;-61
2022/12/18 02:33:46;;;;;;;5.18;3.30;;;;;;;;;;5089863;28;20355;-61
2022/12/18 02:36:16;;;;;;;4.20;2.53;;;;;;;;;;5089652;28;20511;-61
2022/12/18 02:38:47;;;;;;;5.73;3.83;;;;;;;;;;5091778;28;20791;-61
2022/12/18 02:41:20;;;;;;;4.27;3.07;;;;;;;;;;5110781;28;20478;-61
2022/12/18 02:43:50;;;;;;;11.40;3.40;;;;;;;;;;5115285;28;20370;-61
2022/12/18 02:46:33;;;;;;;5.17;3.23;;;;;;;;;;5115309;28;20047;-60
2022/12/18 02:49:15;;;;;;;5.37;3.43;;;;;;;;;;5115186;28;20031;-60
2022/12/18 02:51:49;;;;;;;6.50;2.97;;;;;;;;;;5113955;28;20123;-60
2022/12/18 02:54:23;;;;;;;4.67;3.30;;;;;;;;;;5108653;28;20066;-61
2022/12/18 02:56:59;;;;;;;3.55;2.13;;;;;;;;;;5089541;28;20427;-60
2022/12/18 02:59:34;;;;;;;4.07;2.03;;;;;;;;;;5089472;28;20099;-60
2022/12/18 03:02:05;;;;;;;1.80;1.40;;;;;;;;;;5089732;28;20020;-60
2022/12/18 03:04:56;;;;;;;4.17;2.93;;;;;;;;;;5096141;28;20145;-61
2022/12/18 03:07:28;;;;;;;3.07;2.40;;;;;;;;;;5114559;28;20377;-60
2022/12/18 03:09:58;;;;;;;4.90;2.57;;;;;;;;;;5108803;28;20111;-60
2022/12/18 03:12:32;;;;;;;4.00;2.70;;;;;;;;;;5094359;28;20489;-59
2022/12/18 03:15:07;;;;;;;4.57;2.53;;;;;;;;;;5091781;28;20311;-61
2022/12/18 03:17:37;;;;;;;4.57;2.60;;;;;;;;;;5089043;28;20073;-60
2022/12/18 03:20:09;;;;;;;2.20;1.73;;;;;;;;;;5092609;28;20024;-61
2022/12/18 03:22:39;;;;;;;5.53;2.00;;;;;;;;;;5098809;28;20028;-62
2022/12/18 03:25:11;;;;;;;4.50;2.67;;;;;;;;;;5090940;28;20020;-58
2022/12/18 03:27:42;;;;;;;5.47;1.70;;;;;;;;;;5093753;28;20127;-59
2022/12/18 03:30:12;;;;;;;3.20;1.93;;;;;;;;;;5094780;28;20028;-60
2022/12/18 03:32:43;;;;;;;4.60;2.97;;;;;;;;;;5094008;28;20024;-59
2022/12/18 03:35:13;;;;;;;2.33;1.73;;;;;;;;;;5092928;28;20050;-60
2022/12/18 03:37:44;;;;;;;3.13;2.67;;;;;;;;;;5091084;28;20079;-60
2022/12/18 03:40:13;;;;;;;6.00;2.67;;;;;;;;;;5092789;28;20028;-61
2022/12/18 03:42:58;;;;;;;5.90;3.37;;;;;;;;;;5108914;28;20019;-61
2022/12/18 03:45:33;;;;;;;5.72;1.60;;;;;;;;;;5108912;28;20107;-60
2022/12/18 03:48:05;;;;;;;4.07;2.47;;;;;;;;;;5110908;28;20035;-60
2022/12/18 03:50:55;;;;;;;2.80;1.87;;;;;;;;;;5107752;28;20035;-61
2022/12/18 03:53:36;;;;;;;3.77;2.60;;;;;;;;;;5101470;28;20024;-60
2022/12/18 03:56:07;;;;;;;5.80;3.17;;;;;;;;;;5113593;28;20023;-60
2022/12/18 03:58:40;;;;;;;5.90;4.20;;;;;;;;;;5102854;28;20469;-60
2022/12/18 04:01:09;;;;;;;5.67;3.80;;;;;;;;;;5088153;28;20024;-61
2022/12/18 04:03:37;;;;;;;5.67;4.50;;;;;;;;;;5087984;28;20030;-61
2022/12/18 04:06:07;;;;;;;2.57;2.10;;;;;;;;;;5088105;28;20031;-61
2022/12/18 04:08:36;;;;;;;5.83;3.73;;;;;;;;;;5097439;28;20047;-59
2022/12/18 04:11:05;;;;;;;4.63;3.40;;;;;;;;;;5113134;28;20110;-60
2022/12/18 04:13:35;;;;;;;5.77;3.50;;;;;;;;;;5113641;28;20023;-60
2022/12/18 04:16:03;;;;;;;10.23;2.87;;;;;;;;;;5113572;28;20096;-60
2022/12/18 04:18:32;;;;;;;17.57;3.63;;;;;;;;;;5104225;28;20028;-61
2022/12/18 04:21:00;;;;;;;2.67;2.30;;;;;;;;;;5092647;28;20024;-60
2022/12/18 04:23:29;;;;;;;5.47;3.73;;;;;;;;;;5105010;28;20020;-60
2022/12/18 04:25:57;;;;;;;4.63;3.80;;;;;;;;;;5108110;28;20023;-60
2022/12/18 04:28:27;;;;;;;5.00;3.37;;;;;;;;;;5107117;28;20023;-59
2022/12/18 04:30:56;;;;;;;3.03;2.37;;;;;;;;;;5089535;28;20042;-59
2022/12/18 04:33:25;;;;;;;5.63;4.10;;;;;;;;;;5092458;28;20028;-58
2022/12/18 04:35:55;;;;;;;3.47;2.77;;;;;;;;;;5092834;28;20024;-59
2022/12/18 04:38:23;;;;;;;7.27;3.30;;;;;;;;;;5099474;28;20110;-60
2022/12/18 04:40:51;;;;;;;11.90;4.87;;;;;;;;;;5113050;28;20024;-61
2022/12/18 04:43:20;;;;;;;4.53;3.40;;;;;;;;;;5112958;28;20023;-60
2022/12/18 04:45:50;;;;;;;6.20;2.73;;;;;;;;;;5107598;28;20028;-59
2022/12/18 04:48:20;;;;;;;4.20;2.70;;;;;;;;;;5101553;28;20024;-60
2022/12/18 04:50:53;;;;;;;5.40;3.67;;;;;;;;;;5086917;28;20541;-59
2022/12/18 04:53:22;;;;;;;5.73;3.30;;;;;;;;;;5087165;28;20343;-59
2022/12/18 04:55:51;;;;;;;4.00;2.57;;;;;;;;;;5092433;28;20016;-59
2022/12/18 04:58:23;;;;;;;3.43;2.80;;;;;;;;;;5098280;28;20031;-60
2022/12/18 05:00:51;;;;;;;4.20;2.60;;;;;;;;;;5112053;28;20027;-61
2022/12/18 05:03:19;;;;;;;7.23;4.13;;;;;;;;;;5112802;28;20023;-61
2022/12/18 05:05:51;;;;;;;3.77;2.97;;;;;;;;;;5112423;28;20058;-59
2022/12/18 05:08:19;;;;;;;7.73;4.67;;;;;;;;;;5102589;28;20028;-62
2022/12/18 05:10:52;;;;;;;8.47;3.87;;;;;;;;;;5099070;28;20428;-62
2022/12/18 05:13:20;;;;;;;4.63;3.73;;;;;;;;;;5107534;28;20028;-62
2022/12/18 05:15:54;;;;;;;3.67;2.50;;;;;;;;;;5107554;28;20102;-61
2022/12/18 05:18:23;;;;;;;6.00;2.87;;;;;;;;;;5112919;28;20378;-60
2022/12/18 05:20:52;;;;;;;5.93;3.13;;;;;;;;;;5101017;28;20047;-60
2022/12/18 05:23:20;;;;;;;9.80;5.07;;;;;;;;;;5091940;28;20031;-60
2022/12/18 05:25:57;;;;;;;9.53;3.83;;;;;;;;;;5092107;28;20407;-59
2022/12/18 05:28:25;;;;;;;7.33;4.33;;;;;;;;;;5090893;28;20023;-60
2022/12/18 05:30:57;;;;;;;10.27;5.30;;;;;;;;;;5087488;28;20088;-60
2022/12/18 05:33:27;;;;;;;5.63;4.37;;;;;;;;;;5086938;28;20406;-60
2022/12/18 05:36:01;;;;;;;4.57;3.47;;;;;;;;;;5087159;28;20513;-60
2022/12/18 05:38:30;;;;;;;6.20;4.60;;;;;;;;;;5087941;28;20024;-59
2022/12/18 05:40:58;;;;;;;5.43;2.97;;;;;;;;;;5091982;28;20466;-61
2022/12/18 05:43:28;;;;;;;2.77;2.00;;;;;;;;;;5104822;28;20027;-61
2022/12/18 05:45:58;;;;;;;5.13;3.67;;;;;;;;;;5112356;28;20031;-60
2022/12/18 05:48:30;;;;;;;3.63;2.70;;;;;;;;;;5112456;28;20096;-60
2022/12/18 05:51:06;;;;;;;6.07;4.17;;;;;;;;;;5110534;28;20024;-61
2022/12/18 05:53:37;;;;;;;4.90;3.40;;;;;;;;;;5093147;28;20112;-60
2022/12/18 05:56:11;;;;;;;3.50;2.70;;;;;;;;;;5086783;28;20028;-61
2022/12/18 05:58:39;;;;;;;5.50;2.95;;;;;;;;;;5089707;28;20112;-60
2022/12/18 06:01:19;;;;;;;12.23;6.03;;;;;;;;;;5092060;28;20020;-61
2022/12/18 06:03:47;;;;;;;6.37;4.43;;;;;;;;;;5096233;28;20367;-61
2022/12/18 06:06:17;;;;;;;5.40;3.97;;;;;;;;;;5115671;28;20031;-60
2022/12/18 06:08:53;;;;;;;2.93;2.23;;;;;;;;;;5115956;28;20055;-60
2022/12/18 06:11:21;;;;;;;6.03;2.93;;;;;;;;;;5115603;28;20043;-60
2022/12/18 06:13:51;;;;;;;7.50;3.30;;;;;;;;;;5113137;28;20478;-60
2022/12/18 06:16:18;;;;;;;3.10;2.50;;;;;;;;;;5104630;28;20474;-59
2022/12/18 06:18:45;;;;;;;2.70;2.10;;;;;;;;;;5089760;28;20123;-60
2022/12/18 06:21:12;;;;;;;4.37;3.07;;;;;;;;;;5090265;28;20071;-60
2022/12/18 06:23:39;;;;;;;5.03;2.87;;;;;;;;;;5111480;28;20066;-60
2022/12/18 06:26:11;;;;;;;4.70;3.37;;;;;;;;;;5115835;28;20371;-60
2022/12/18 06:28:37;;;;;;;6.43;4.53;;;;;;;;;;5114604;28;20058;-60
2022/12/18 06:31:05;;;;;;;8.37;5.87;;;;;;;;;;5095720;28;20390;-60
2022/12/18 06:33:32;;;;;;;8.00;5.60;;;;;;;;;;5095277;28;20158;-60
2022/12/18 06:36:04;;;;;;;11.73;5.53;;;;;;;;;;5092136;28;20107;-60
2022/12/18 06:38:33;;;;;;;14.23;5.27;;;;;;;;;;5089895;28;20489;-60
2022/12/18 06:41:00;;;;;;;4.27;3.20;;;;;;;;;;5096139;28;20039;-59
2022/12/18 06:43:29;;;;;;;8.90;5.10;;;;;;;;;;5109565;28;20028;-62
2022/12/18 06:46:03;;;;;;;6.47;4.17;;;;;;;;;;5112440;28;20361;-60
2022/12/18 06:48:32;;;;;;;7.20;4.87;;;;;;;;;;5112810;28;20034;-60
2022/12/18 06:50:59;;;;;;;5.50;4.47;;;;;;;;;;5096360;28;20037;-60
2022/12/18 06:53:30;;;;;;;4.60;3.67;;;;;;;;;;5102656;28;20066;-60
2022/12/18 06:56:04;;;;;;;6.67;4.33;;;;;;;;;;5094880;28;20077;-60
2022/12/18 06:58:32;;;;;;;8.13;4.22;;;;;;;;;;5091861;28;20039;-60
2022/12/18 07:01:06;;;;;;;36.13;5.70;;;;;;;;;;5089477;28;20028;-60
2022/12/18 07:03:33;;;;;;;9.50;3.60;;;;;;;;;;5101336;28;20026;-60
2022/12/18 07:06:03;;;;;;;4.27;3.60;;;;;;;;;;5109791;28;20256;-60
2022/12/18 07:08:30;;;;;;;5.27;4.23;;;;;;;;;;5112139;28;20125;-60
2022/12/18 07:10:57;;;;;;;7.23;4.60;;;;;;;;;;5114607;28;20047;-60
2022/12/18 07:13:29;;;;;;;6.97;3.83;;;;;;;;;;5114886;28;20023;-60
2022/12/18 07:15:55;;;;;;;1.97;1.60;;;;;;;;;;5099697;28;20108;-61
2022/12/18 07:18:22;;;;;;;4.73;3.70;;;;;;;;;;5094483;28;20031;-60
2022/12/18 07:20:49;;;;;;;4.33;3.00;;;;;;;;;;5091633;28;20051;-61
2022/12/18 07:23:16;;;;;;;3.07;2.03;;;;;;;;;;5105184;28;20030;-60
2022/12/18 07:25:43;;;;;;;3.13;2.27;;;;;;;;;;5109220;28;20058;-60
2022/12/18 07:28:12;;;;;;;6.07;4.13;;;;;;;;;;5108275;28;20032;-60
2022/12/18 07:30:39;;;;;;;4.90;2.13;;;;;;;;;;5094908;28;20651;-60
2022/12/18 07:33:06;;;;;;;4.23;3.40;;;;;;;;;;5093536;28;20048;-60
2022/12/18 07:35:38;;;;;;;3.80;2.83;;;;;;;;;;5094032;28;20020;-60
2022/12/18 07:38:06;;;;;;;7.50;4.93;;;;;;;;;;5093861;28;20028;-60
2022/12/18 07:40:33;;;;;;;8.70;4.50;;;;;;;;;;5111022;28;20024;-59
2022/12/18 07:43:00;;;;;;;13.17;5.57;;;;;;;;;;5111609;28;20023;-60
2022/12/18 07:45:26;;;;;;;5.30;3.77;;;;;;;;;;5108982;28;20106;-60
2022/12/18 07:47:53;;;;;;;4.90;3.50;;;;;;;;;;5108690;28;20019;-60
2022/12/18 07:50:20;;;;;;;29.17;3.57;;;;;;;;;;5108632;28;20023;-60
2022/12/18 07:52:48;;;;;;;8.87;3.77;;;;;;;;;;5092468;28;20097;-60
2022/12/18 07:55:18;;;;;;;6.13;3.37;;;;;;;;;;5093520;28;20020;-60
2022/12/18 07:57:45;;;;;;;3.10;2.80;;;;;;;;;;5093518;28;20024;-60
2022/12/18 08:00:12;;;;;;;5.60;4.17;;;;;;;;;;5093729;28;20371;-60
2022/12/18 08:02:39;;;;;;;7.00;3.10;;;;;;;;;;5094513;28;20024;-60
2022/12/18 08:05:09;;;;;;;4.33;2.43;;;;;;;;;;5111718;28;20024;-60
2022/12/18 08:07:36;;;;;;;5.93;2.93;;;;;;;;;;5108353;28;20465;-60
2022/12/18 08:10:03;;;;;;;3.63;3.13;;;;;;;;;;5108430;28;20016;-61
2022/12/18 08:12:30;;;;;;;6.03;4.17;;;;;;;;;;5108450;28;20074;-60
2022/12/18 08:14:57;;;;;;;4.17;3.77;;;;;;;;;;5104893;28;20101;-60
2022/12/18 08:17:25;;;;;;;5.90;4.87;;;;;;;;;;5093194;28;20028;-60
2022/12/18 08:19:52;;;;;;;6.27;4.77;;;;;;;;;;5091926;28;20020;-60
2022/12/18 08:22:20;;;;;;;3.57;2.03;;;;;;;;;;5101271;28;20058;-59
2022/12/18 08:24:47;;;;;;;3.83;2.87;;;;;;;;;;5113479;28;20051;-60
2022/12/18 08:27:21;;;;;;;5.23;4.20;;;;;;;;;;5110924;28;20508;-59
2022/12/18 08:29:48;;;;;;;6.20;4.23;;;;;;;;;;5098816;28;20024;-60
2022/12/18 08:32:15;;;;;;;6.90;5.60;;;;;;;;;;5087724;28;20513;-60
2022/12/18 08:34:47;;;;;;;3.67;2.83;;;;;;;;;;5087289;28;20020;-60
2022/12/18 08:37:14;;;;;;;4.87;4.07;;;;;;;;;;5088589;28;20446;-60
2022/12/18 08:39:41;;;;;;;4.20;3.20;;;;;;;;;;5100299;28;20378;-60
2022/12/18 08:44:54;;;;;;;7.13;4.32;;;;;;;;;;5113123;28;20058;-60
2022/12/18 08:47:21;;;;;;;5.80;4.47;;;;;;;;;;5112833;28;20027;-60
2022/12/18 08:49:50;;;;;;;6.47;3.87;;;;;;;;;;5110989;28;20117;-60
2022/12/18 08:52:21;;;;;;;6.83;5.17;;;;;;;;;;5092758;28;20040;-60
2022/12/18 08:54:48;;;;;;;5.27;4.27;;;;;;;;;;5087250;28;20028;-60
2022/12/18 08:57:15;;;;;;;4.87;3.70;;;;;;;;;;5087294;28;20192;-61
2022/12/18 08:59:42;;;;;;;5.03;3.93;;;;;;;;;;5088673;28;20019;-60
2022/12/18 09:02:11;;;;;;;3.67;3.07;;;;;;;;;;5092128;28;20024;-59
2022/12/18 09:04:47;;;;;;;7.10;4.33;;;;;;;;;;5107326;28;20116;-60
2022/12/18 09:07:15;;;;;;;4.33;3.47;;;;;;;;;;5112918;28;20125;-59
2022/12/18 09:09:43;;;;;;;5.50;3.83;;;;;;;;;;5112810;28;20515;-59
2022/12/18 09:12:11;;;;;;;3.80;3.33;;;;;;;;;;5110325;28;20081;-59
2022/12/18 09:14:42;;;;;;;4.20;3.00;;;;;;;;;;5106329;28;20378;-59
2022/12/18 09:17:09;;;;;;;3.47;2.80;;;;;;;;;;5086939;28;20028;-60
2022/12/18 09:19:38;;;;;;;4.43;3.43;;;;;;;;;;5087303;28;20047;-60
2022/12/18 09:22:06;;;;;;;6.53;4.47;;;;;;;;;;5088581;28;20038;-60
2022/12/18 09:24:40;;;;;;;5.60;3.53;;;;;;;;;;5092374;28;20498;-60
2022/12/18 09:27:12;;;;;;;7.07;4.70;;;;;;;;;;5091945;28;20020;-59
2022/12/18 09:29:42;;;;;;;6.67;4.70;;;;;;;;;;5092890;28;20276;-59
2022/12/18 09:32:13;;;;;;;13.10;4.10;;;;;;;;;;5092859;28;20068;-59
2022/12/18 09:34:41;;;;;;;4.50;3.87;;;;;;;;;;5093936;28;20382;-59
2022/12/18 09:37:08;;;;;;;5.40;2.87;;;;;;;;;;5091254;28;20039;-59
2022/12/18 09:39:36;;;;;;;4.23;2.70;;;;;;;;;;5091928;28;20020;-60
2022/12/18 09:42:03;;;;;;;4.60;3.33;;;;;;;;;;5090606;28;20026;-59
2022/12/18 09:44:50;;;;;;;6.33;2.77;;;;;;;;;;5092453;28;20506;-59
2022/12/18 09:47:17;;;;;;;4.33;3.73;;;;;;;;;;5096056;28;20355;-59
2022/12/18 09:49:46;;;;;;;4.93;3.60;;;;;;;;;;5097734;28;20024;-59
2022/12/18 09:52:26;;;;;;;6.03;4.47;;;;;;;;;;5115805;28;20043;-59
2022/12/18 09:55:21;;;;;;;4.20;3.10;;;;;;;;;;5116344;28;20478;-60
2022/12/18 09:57:52;;;;;;;5.77;4.17;;;;;;;;;;5074453;28;20097;-60
2022/12/18 10:00:20;;;;;;;4.80;3.47;;;;;;;;;;5110909;28;20057;-59
2022/12/18 10:02:50;;;;;;;5.07;3.20;;;;;;;;;;5101520;28;20035;-59
2022/12/18 10:05:20;;;;;;;4.10;3.27;;;;;;;;;;5090548;28;20116;-59
2022/12/18 10:07:52;;;;;;;5.57;4.30;;;;;;;;;;5094267;28;20062;-59
2022/12/18 10:10:24;;;;;;;4.47;3.40;;;;;;;;;;5095043;28;20032;-59
2022/12/18 10:13:15;;;;;;;7.73;3.20;;;;;;;;;;5095579;28;20035;-59
2022/12/18 10:15:55;;;;;;;5.53;3.93;;;;;;;;;;5096975;28;20486;-60
2022/12/18 10:18:55;;;;;;;3.27;2.73;;;;;;;;;;5094910;28;20095;-59
2022/12/18 10:21:34;;;;;;;2.70;1.90;;;;;;;;;;5090250;28;20043;-59
2022/12/18 10:24:00;;;;;;;4.67;3.80;;;;;;;;;;5110663;28;20120;-59
2022/12/18 10:26:28;;;;;;;4.17;3.47;;;;;;;;;;5109283;28;20033;-59
2022/12/18 10:28:58;;;;;;;4.30;3.30;;;;;;;;;;5091991;28;20035;-60
2022/12/18 10:31:29;;;;;;;3.53;2.60;;;;;;;;;;5095274;28;20126;-59
2022/12/18 10:33:56;;;;;;;6.47;2.77;;;;;;;;;;5095304;28;20028;-59
2022/12/18 10:36:26;;;;;;;3.30;2.63;;;;;;;;;;5095081;28;20028;-59
2022/12/18 10:38:54;;;;;;;3.90;2.53;;;;;;;;;;5095185;28;20474;-59
2022/12/18 10:41:25;;;;;;;3.07;2.40;;;;;;;;;;5092954;28;20106;-59
2022/12/18 10:44:12;;;;;;;2.43;2.07;;;;;;;;;;5089478;28;20020;-59
2022/12/18 10:46:39;;;;;;;4.10;2.53;;;;;;;;;;5089676;28;20065;-60
2022/12/18 10:49:19;;;;;;;2.97;2.10;;;;;;;;;;5089672;28;20028;-59
2022/12/18 10:51:45;;;;;;;5.80;1.63;;;;;;;;;;5104095;28;20062;-59
2022/12/18 10:54:18;;;;;;;2.83;2.10;;;;;;;;;;5114942;28;20473;-59
2022/12/18 10:56:45;;;;;;;6.60;3.13;;;;;;;;;;5115181;28;20064;-59
2022/12/18 10:59:15;;;;;;;1.57;1.37;;;;;;;;;;5115192;28;20020;-60
2022/12/18 11:01:51;;;;;;;6.27;3.07;;;;;;;;;;5114770;28;20103;-59
2022/12/18 11:04:24;;;;;;;2.80;2.53;;;;;;;;;;5092143;28;20043;-60
2022/12/18 11:06:56;;;;;;;4.77;3.47;;;;;;;;;;5089347;28;20035;-58
2022/12/18 11:09:31;;;;;;;2.17;1.53;;;;;;;;;;5089219;28;20381;-59
2022/12/18 11:12:00;;;;;;;3.85;2.97;;;;;;;;;;5088707;28;20036;-59
2022/12/18 11:14:50;;;;;;;3.03;2.50;;;;;;;;;;5094257;28;20454;-59
2022/12/18 11:17:21;;;;;;;2.63;2.30;;;;;;;;;;5070790;28;20031;-59
2022/12/18 11:19:56;;;;;;;3.37;2.87;;;;;;;;;;5114638;28;20479;-59
2022/12/18 11:22:27;;;;;;;4.13;3.38;;;;;;;;;;5105667;28;20028;-59
2022/12/18 11:24:56;;;;;;;4.57;3.57;;;;;;;;;;5094206;28;20490;-59
2022/12/18 11:27:24;;;;;;;4.73;2.73;;;;;;;;;;5096034;28;20096;-59
2022/12/18 11:29:54;;;;;;;6.03;3.33;;;;;;;;;;5099910;28;20058;-59
2022/12/18 11:32:30;;;;;;;2.20;1.77;;;;;;;;;;5088870;28;20063;-58
2022/12/18 11:35:04;;;;;;;3.00;2.13;;;;;;;;;;5088872;28;20020;-57
2022/12/18 11:37:32;;;;;;;8.97;5.13;;;;;;;;;;5093708;28;20042;-57
2022/12/18 11:40:04;;;;;;;3.30;2.40;;;;;;;;;;5105001;28;20096;-57
2022/12/18 11:42:45;;;;;;;3.97;3.33;;;;;;;;;;5114342;28;20061;-57
2022/12/18 11:45:21;;;;;;;2.77;2.37;;;;;;;;;;5113989;28;20094;-57
2022/12/18 11:48:22;;;;;;;3.10;2.63;;;;;;;;;;5110942;28;20026;-58
2022/12/18 11:50:56;;;;;;;3.63;2.83;;;;;;;;;;5069325;28;20095;-57
2022/12/18 11:53:24;;;;;;;5.68;4.90;;;;;;;;;;5088412;28;20020;-57
2022/12/18 11:55:54;;;;;;;4.77;3.73;;;;;;;;;;5087807;28;20051;-57
2022/12/18 11:58:28;;;;;;;3.80;2.87;;;;;;;;;;5096155;28;20059;-58
2022/12/18 12:01:06;;;;;;;2.50;1.93;;;;;;;;;;5113755;28;20020;-57
2022/12/18 12:03:49;;;;;;;3.57;3.20;;;;;;;;;;5113735;28;20032;-58
2022/12/18 12:06:27;;;;;;;7.07;4.67;;;;;;;;;;5113806;28;20024;-57
2022/12/18 12:09:02;;;;;;;6.73;5.03;;;;;;;;;;5113449;28;20031;-57
2022/12/18 12:11:36;;;;;;;2.55;2.22;;;;;;;;;;5096127;28;20028;-57
2022/12/18 12:14:22;;;;;;;4.82;3.47;;;;;;;;;;5088215;28;20028;-57
2022/12/18 12:17:22;;;;;;;4.50;3.70;;;;;;;;;;5088106;28;20024;-58
2022/12/18 12:19:59;;;;;;;4.63;3.77;;;;;;;;;;5069162;28;20449;-58
2022/12/18 12:22:44;;;;;;;2.10;1.83;;;;;;;;;;5093055;28;20031;-58
2022/12/18 12:25:21;;;;;;;2.88;2.35;;;;;;;;;;5093145;28;20497;-57
2022/12/18 12:28:13;;;;;;;2.57;2.37;;;;;;;;;;5093112;28;20031;-57
2022/12/18 12:31:09;;;;;;;8.23;4.77;;;;;;;;;;5051200;28;20056;-57
2022/12/18 12:33:50;;;;;;;3.47;3.07;;;;;;;;;;5104455;28;20028;-58
2022/12/18 12:36:22;;;;;;;4.37;3.03;;;;;;;;;;5107465;28;20267;-58
2022/12/18 12:38:59;;;;;;;3.27;2.80;;;;;;;;;;5107918;28;20264;-57
2022/12/18 12:44:28;;;;;;;4.67;3.27;;;;;;;;;;5100241;28;20080;-57
2022/12/18 12:47:03;;;;;;;4.33;3.10;;;;;;;;;;5092904;28;20330;-57
2022/12/18 12:49:33;;;;;;;4.68;4.00;;;;;;;;;;5092587;28;20032;-57
2022/12/18 12:52:00;;;;;;;3.97;3.20;;;;;;;;;;5092566;28;20032;-57
2022/12/18 12:54:28;;;;;;;5.80;4.17;;;;;;;;;;5091131;28;20743;-57
2022/12/18 12:57:11;;;;;;;11.53;6.00;;;;;;;;;;5102390;28;20264;-57
2022/12/18 12:59:56;;;;;;;6.47;5.63;;;;;;;;;;5107810;28;20111;-57
2022/12/18 13:02:23;;;;;;;;;;;;;;;;;;5108177;28;20116;-57
2022/12/18 13:05:17;;;;;;;10.13;3.63;;;;;;;;;;5108876;28;20335;-57
2022/12/18 13:07:52;;;;;;;3.90;3.30;;;;;;;;;;5106465;28;20348;-57
2022/12/18 13:10:25;;;;;;;3.70;2.75;;;;;;;;;;5092184;28;20380;-57
2022/12/18 13:13:01;;;;;;;9.23;4.97;;;;;;;;;;5092285;28;20027;-57
2022/12/18 13:15:34;;;;;;;3.67;2.83;;;;;;;;;;5092405;28;20339;-57
2022/12/18 13:18:07;;;;;;;3.60;2.53;;;;;;;;;;5088567;28;20264;-57
2022/12/18 13:20:38;;;;;;;4.00;3.07;;;;;;;;;;5101625;28;20348;-57
2022/12/18 13:23:21;;;;;;;4.23;3.00;;;;;;;;;;5092615;28;20271;-57
2022/12/18 13:25:48;;;;;;;4.23;3.40;;;;;;;;;;5087077;28;20283;-57
2022/12/18 13:28:16;;;;;;;4.90;2.93;;;;;;;;;;5090828;28;20249;-57
2022/12/18 13:30:46;;;;;;;4.97;2.80;;;;;;;;;;5092813;28;20284;-57
2022/12/18 13:33:17;;;;;;;28.03;3.33;;;;;;;;;;5092148;28;20263;-57
2022/12/18 13:35:48;;;;;;;3.43;2.77;;;;;;;;;;5092118;28;20264;-57
2022/12/18 13:38:23;;;;;;;3.60;2.70;;;;;;;;;;5093081;28;20269;-57
2022/12/18 13:40:52;;;;;;;4.32;3.45;;;;;;;;;;5086874;28;20261;-57
2022/12/18 13:43:18;;;;;;;3.33;2.63;;;;;;;;;;5086899;28;20020;-57
2022/12/18 13:45:47;;;;;;;4.23;2.77;;;;;;;;;;5086362;28;20649;-57
2022/12/18 14:03:50;;;;;;;3.73;3.00;;;;;;;;;;5048226;27;2418863;-59
2022/12/18 14:06:17;;;;;;;3.07;2.13;;;;;;;;;;5104810;28;20023;-59
2022/12/18 14:08:44;;;;;;;4.20;2.37;;;;;;;;;;5104259;28;20053;-59
2022/12/18 14:11:21;;;;;;;7.17;3.17;;;;;;;;;;5104415;28;20069;-59
2022/12/18 14:13:47;;;;;;;3.93;3.17;;;;;;;;;;5104291;28;20402;-59
2022/12/18 14:16:15;;;;;;;7.03;3.47;;;;;;;;;;5109918;28;20470;-59
2022/12/18 14:18:59;;;;;;;4.23;3.13;;;;;;;;;;5109874;28;20264;-60
2022/12/18 14:21:29;;;;;;;3.53;2.50;;;;;;;;;;5110034;28;20027;-60
2022/12/18 14:24:15;;;;;;;5.00;2.90;;;;;;;;;;5109161;28;20020;-60
2022/12/18 14:38:22;;;;;;;6.70;3.92;;;;;;;;;;5070046;27;2031924;-59
2022/12/18 14:40:52;;;;;;;4.67;3.17;;;;;;;;;;5104771;28;20016;-58
2022/12/18 14:43:19;;;;;;;4.10;3.13;;;;;;;;;;5104391;28;20026;-59
2022/12/18 14:45:46;;;;;;;4.67;3.43;;;;;;;;;;5096866;28;20040;-58
2022/12/18 14:48:13;;;;;;;6.10;3.13;;;;;;;;;;5097261;28;20044;-58
2022/12/18 14:50:39;;;;;;;4.60;2.80;;;;;;;;;;5110035;28;20092;-58
2022/12/18 14:53:06;;;;;;;2.97;2.67;;;;;;;;;;5109917;28;20027;-58
2022/12/18 14:55:33;;;;;;;5.17;3.33;;;;;;;;;;5109750;28;20016;-59
2022/12/18 14:57:59;;;;;;;3.80;3.20;;;;;;;;;;5108695;28;20114;-59
2022/12/18 15:00:27;;;;;;;9.97;6.10;;;;;;;;;;5108339;28;20089;-59
2022/12/18 15:02:56;;;;;;;15.43;6.77;;;;;;;;;;5095990;28;20406;-59
2022/12/18 15:05:28;;;;;;;5.00;4.33;;;;;;;;;;5083923;28;20379;-59
2022/12/18 15:07:56;;;;;;;6.27;4.10;;;;;;;;;;5083683;28;20059;-59
2022/12/18 15:10:27;;;;;;;7.33;5.23;;;;;;;;;;5099563;28;20020;-59
2022/12/18 15:12:59;;;;;;;4.77;4.13;;;;;;;;;;5107400;28;20035;-60
2022/12/18 15:15:35;;;;;;;6.13;4.13;;;;;;;;;;5107524;28;20035;-59
2022/12/18 15:18:10;;;;;;;13.67;5.00;;;;;;;;;;5106852;28;20355;-60
2022/12/18 15:20:54;;;;;;;6.47;4.47;;;;;;;;;;5097201;28;20369;-60
2022/12/18 15:23:24;;;;;;;6.10;4.57;;;;;;;;;;5105645;28;20080;-60
2022/12/18 15:25:58;;;;;;;4.87;3.60;;;;;;;;;;5103703;28;20105;-59
2022/12/18 15:28:27;;;;;;;4.28;3.45;;;;;;;;;;5103362;28;20031;-60
2022/12/18 15:31:05;;;;;;;4.83;3.10;;;;;;;;;;5103518;28;20031;-61
2022/12/18 15:33:35;;;;;;;9.67;4.30;;;;;;;;;;5105251;28;20027;-61
2022/12/18 15:36:04;;;;;;;12.00;4.67;;;;;;;;;;5108582;28;20063;-61
2022/12/18 15:38:31;;;;;;;5.97;3.67;;;;;;;;;;5058738;28;20025;-60
2022/12/18 15:40:57;;;;;;;5.10;3.13;;;;;;;;;;5060294;28;20025;-62
2022/12/18 15:43:33;;;;;;;7.27;4.00;;;;;;;;;;5094271;28;20020;-61
2022/12/18 15:46:20;;;;;;;6.20;4.07;;;;;;;;;;5091806;28;20105;-62
2022/12/18 15:48:48;;;;;;;9.07;5.20;;;;;;;;;;5089848;28;20012;-60
2022/12/18 15:51:16;;;;;;;6.97;4.43;;;;;;;;;;5089934;28;20059;-61
2022/12/18 15:53:43;;;;;;;4.17;2.83;;;;;;;;;;5089557;28;20472;-62
2022/12/18 15:58:58;;;;;;;9.07;5.53;;;;;;;;;;5094662;28;20538;-60
2022/12/18 16:01:27;;;;;;;7.07;4.00;;;;;;;;;;5094947;28;20042;-61
2022/12/18 16:03:53;;;;;;;8.53;5.07;;;;;;;;;;5094635;28;20028;-60